sensor_id;sensor_type;location;lat;lon;timestamp;temperature;humidity
21582;DHT22;10952;50.836;4.348;2023-07-02T00:02:23;18.40;99.90
21582;DHT22;10952;50.836;4.348;2023-07-02T00:04:55;18.30;99.90
21582;DHT22;10952;50.836;4.348;2023-07-02T00:07:21;18.20;99.90
21582;DHT22;10952;50.836;4.348;2023-07-02T00:09:47;18.10;99.90
21582;DHT22;10952;50.836;4.348;2023-07-02T00:12:14;18.10;99.90
21582;DHT22;10952;50.836;4.348;2023-07-02T00:14:43;18.10;99.90
21582;DHT22;10952;50.836;4.348;2023-07-02T00:17:08;18.10;99.90
21582;DHT22;10952;50.836;4.348;2023-07-02T00:19:41;18.10;99.90
21582;DHT22;10952;50.836;4.348;2023-07-02T00:22:13;18.10;99.90
21582;DHT22;10952;50.836;4.348;2023-07-02T00:24:41;18.10;99.90
21582;DHT22;10952;50.836;4.348;2023-07-02T00:27:10;18.00;99.90
21582;DHT22;10952;50.836;4.348;2023-07-02T00:29:35;18.00;99.90
21582;DHT22;10952;50.836;4.348;2023-07-02T00:32:04;18.00;99.90
21582;DHT22;10952;50.836;4.348;2023-07-02T00:34:31;18.00;99.90
21582;DHT22;10952;50.836;4.348;2023-07-02T00:36:57;18.10;99.90
21582;DHT22;10952;50.836;4.348;2023-07-02T00:39:26;18.10;99.90
21582;DHT22;10952;50.836;4.348;2023-07-02T00:41:52;18.10;99.90
21582;DHT22;10952;50.836;4.348;2023-07-02T00:44:19;18.00;99.90
21582;DHT22;10952;50.836;4.348;2023-07-02T00:46:47;18.00;99.90
21582;DHT22;10952;50.836;4.348;2023-07-02T00:49:13;18.10;99.90
21582;DHT22;10952;50.836;4.348;2023-07-02T00:51:39;18.10;99.90
21582;DHT22;10952;50.836;4.348;2023-07-02T00:54:06;18.00;99.90
21582;DHT22;10952;50.836;4.348;2023-07-02T00:56:35;18.00;99.90
21582;DHT22;10952;50.836;4.348;2023-07-02T00:59:04;18.00;99.90
21582;DHT22;10952;50.836;4.348;2023-07-02T01:01:30;17.90;99.90
21582;DHT22;10952;50.836;4.348;2023-07-02T01:04:00;17.80;99.90
21582;DHT22;10952;50.836;4.348;2023-07-02T01:09:42;17.90;99.90
21582;DHT22;10952;50.836;4.348;2023-07-02T01:12:17;17.90;99.90
21582;DHT22;10952;50.836;4.348;2023-07-02T01:14:48;18.00;99.90
21582;DHT22;10952;50.836;4.348;2023-07-02T01:17:16;17.90;99.90
21582;DHT22;10952;50.836;4.348;2023-07-02T01:22:38;18.00;99.90
21582;DHT22;10952;50.836;4.348;2023-07-02T01:25:27;18.00;99.90
21582;DHT22;10952;50.836;4.348;2023-07-02T01:27:56;18.10;99.90
21582;DHT22;10952;50.836;4.348;2023-07-02T01:30:27;18.00;99.90
21582;DHT22;10952;50.836;4.348;2023-07-02T01:32:52;18.10;99.90
21582;DHT22;10952;50.836;4.348;2023-07-02T01:35:21;18.20;99.90
21582;DHT22;10952;50.836;4.348;2023-07-02T01:37:49;18.20;99.90
21582;DHT22;10952;50.836;4.348;2023-07-02T01:40:18;18.20;99.90
21582;DHT22;10952;50.836;4.348;2023-07-02T01:42:43;18.20;99.90
21582;DHT22;10952;50.836;4.348;2023-07-02T01:45:15;18.20;99.90
21582;DHT22;10952;50.836;4.348;2023-07-02T01:47:44;18.20;99.90
21582;DHT22;10952;50.836;4.348;2023-07-02T01:50:16;18.10;99.90
21582;DHT22;10952;50.836;4.348;2023-07-02T01:52:44;18.10;99.90
21582;DHT22;10952;50.836;4.348;2023-07-02T01:55:13;18.10;99.90
21582;DHT22;10952;50.836;4.348;2023-07-02T01:57:55;18.10;99.90
21582;DHT22;10952;50.836;4.348;2023-07-02T02:00:24;18.10;99.90
21582;DHT22;10952;50.836;4.348;2023-07-02T02:02:57;18.10;99.90
21582;DHT22;10952;50.836;4.348;2023-07-02T02:05:26;18.10;99.90
21582;DHT22;10952;50.836;4.348;2023-07-02T02:07:55;18.20;99.90
21582;DHT22;10952;50.836;4.348;2023-07-02T02:10:24;18.20;99.90
21582;DHT22;10952;50.836;4.348;2023-07-02T02:12:52;18.00;99.90
21582;DHT22;10952;50.836;4.348;2023-07-02T02:15:20;18.00;99.90
21582;DHT22;10952;50.836;4.348;2023-07-02T02:17:46;18.10;99.90
21582;DHT22;10952;50.836;4.348;2023-07-02T02:20:13;18.10;99.90
21582;DHT22;10952;50.836;4.348;2023-07-02T02:22:44;18.10;99.90
21582;DHT22;10952;50.836;4.348;2023-07-02T02:25:12;18.10;99.90
21582;DHT22;10952;50.836;4.348;2023-07-02T02:27:38;18.00;99.90
21582;DHT22;10952;50.836;4.348;2023-07-02T02:30:06;18.00;99.90
21582;DHT22;10952;50.836;4.348;2023-07-02T02:32:33;18.00;99.90
21582;DHT22;10952;50.836;4.348;2023-07-02T02:34:59;17.90;99.90
21582;DHT22;10952;50.836;4.348;2023-07-02T02:37:25;17.90;99.90
21582;DHT22;10952;50.836;4.348;2023-07-02T02:39:54;17.80;99.90
21582;DHT22;10952;50.836;4.348;2023-07-02T02:42:25;17.80;99.90
21582;DHT22;10952;50.836;4.348;2023-07-02T02:44:51;17.70;99.90
21582;DHT22;10952;50.836;4.348;2023-07-02T02:47:17;17.50;99.90
21582;DHT22;10952;50.836;4.348;2023-07-02T02:49:49;17.50;99.90
21582;DHT22;10952;50.836;4.348;2023-07-02T02:52:16;17.50;99.90
21582;DHT22;10952;50.836;4.348;2023-07-02T02:54:45;17.50;99.90
21582;DHT22;10952;50.836;4.348;2023-07-02T02:57:14;17.40;99.90
21582;DHT22;10952;50.836;4.348;2023-07-02T02:59:43;17.40;99.90
21582;DHT22;10952;50.836;4.348;2023-07-02T03:02:11;17.40;99.90
21582;DHT22;10952;50.836;4.348;2023-07-02T03:04:37;17.40;99.90
21582;DHT22;10952;50.836;4.348;2023-07-02T03:07:06;17.40;99.90
21582;DHT22;10952;50.836;4.348;2023-07-02T03:09:35;17.30;99.90
21582;DHT22;10952;50.836;4.348;2023-07-02T03:12:03;17.40;99.90
21582;DHT22;10952;50.836;4.348;2023-07-02T03:14:31;17.40;99.90
21582;DHT22;10952;50.836;4.348;2023-07-02T03:17:10;17.30;99.90
21582;DHT22;10952;50.836;4.348;2023-07-02T03:19:38;17.30;99.90
21582;DHT22;10952;50.836;4.348;2023-07-02T03:22:05;17.20;99.90
21582;DHT22;10952;50.836;4.348;2023-07-02T03:24:51;17.20;99.90
21582;DHT22;10952;50.836;4.348;2023-07-02T03:27:20;17.10;99.90
21582;DHT22;10952;50.836;4.348;2023-07-02T03:29:45;17.10;99.90
21582;DHT22;10952;50.836;4.348;2023-07-02T03:32:11;17.20;99.90
21582;DHT22;10952;50.836;4.348;2023-07-02T03:34:36;17.10;99.90
21582;DHT22;10952;50.836;4.348;2023-07-02T03:37:03;17.10;99.90
21582;DHT22;10952;50.836;4.348;2023-07-02T03:39:29;17.10;99.90
21582;DHT22;10952;50.836;4.348;2023-07-02T03:41:55;17.10;99.90
21582;DHT22;10952;50.836;4.348;2023-07-02T03:44:23;17.10;99.90
21582;DHT22;10952;50.836;4.348;2023-07-02T03:46:53;17.10;99.90
21582;DHT22;10952;50.836;4.348;2023-07-02T03:52:41;17.10;99.90
21582;DHT22;10952;50.836;4.348;2023-07-02T03:55:08;17.00;99.90
21582;DHT22;10952;50.836;4.348;2023-07-02T03:57:35;16.90;99.90
21582;DHT22;10952;50.836;4.348;2023-07-02T04:00:04;16.90;99.90
21582;DHT22;10952;50.836;4.348;2023-07-02T04:02:31;16.90;99.90
21582;DHT22;10952;50.836;4.348;2023-07-02T04:05:13;16.80;99.90
21582;DHT22;10952;50.836;4.348;2023-07-02T04:07:41;16.90;99.90
21582;DHT22;10952;50.836;4.348;2023-07-02T04:10:07;16.80;99.90
21582;DHT22;10952;50.836;4.348;2023-07-02T04:12:36;16.80;99.90
21582;DHT22;10952;50.836;4.348;2023-07-02T04:15:02;16.90;99.90
21582;DHT22;10952;50.836;4.348;2023-07-02T04:17:29;16.90;99.90
21582;DHT22;10952;50.836;4.348;2023-07-02T04:20:20;16.90;99.90
21582;DHT22;10952;50.836;4.348;2023-07-02T04:22:49;16.90;99.90
21582;DHT22;10952;50.836;4.348;2023-07-02T04:25:15;16.80;99.90
21582;DHT22;10952;50.836;4.348;2023-07-02T04:27:45;16.90;99.90
21582;DHT22;10952;50.836;4.348;2023-07-02T04:30:14;16.80;99.90
21582;DHT22;10952;50.836;4.348;2023-07-02T04:32:40;16.90;99.90
21582;DHT22;10952;50.836;4.348;2023-07-02T04:35:09;17.00;99.90
21582;DHT22;10952;50.836;4.348;2023-07-02T04:37:40;16.90;99.90
21582;DHT22;10952;50.836;4.348;2023-07-02T04:40:08;16.90;99.90
21582;DHT22;10952;50.836;4.348;2023-07-02T04:42:41;16.90;99.90
21582;DHT22;10952;50.836;4.348;2023-07-02T04:45:15;16.90;99.90
21582;DHT22;10952;50.836;4.348;2023-07-02T04:47:47;17.00;99.90
21582;DHT22;10952;50.836;4.348;2023-07-02T04:50:17;16.90;99.90
21582;DHT22;10952;50.836;4.348;2023-07-02T04:52:46;17.00;99.90
21582;DHT22;10952;50.836;4.348;2023-07-02T04:55:14;16.90;99.90
21582;DHT22;10952;50.836;4.348;2023-07-02T04:57:40;16.90;99.90
21582;DHT22;10952;50.836;4.348;2023-07-02T05:00:06;16.80;99.90
21582;DHT22;10952;50.836;4.348;2023-07-02T05:02:37;16.80;99.90
21582;DHT22;10952;50.836;4.348;2023-07-02T05:05:06;17.00;99.90
21582;DHT22;10952;50.836;4.348;2023-07-02T05:07:32;17.00;99.90
21582;DHT22;10952;50.836;4.348;2023-07-02T05:10:01;17.10;99.90
21582;DHT22;10952;50.836;4.348;2023-07-02T05:12:30;17.10;99.90
21582;DHT22;10952;50.836;4.348;2023-07-02T05:15:30;17.10;99.90
21582;DHT22;10952;50.836;4.348;2023-07-02T05:17:55;17.10;99.90
21582;DHT22;10952;50.836;4.348;2023-07-02T05:20:24;17.20;99.90
21582;DHT22;10952;50.836;4.348;2023-07-02T05:22:50;17.30;99.90
21582;DHT22;10952;50.836;4.348;2023-07-02T05:25:19;17.40;99.90
21582;DHT22;10952;50.836;4.348;2023-07-02T05:27:47;17.40;99.90
21582;DHT22;10952;50.836;4.348;2023-07-02T05:33:36;17.40;99.90
21582;DHT22;10952;50.836;4.348;2023-07-02T05:36:05;17.40;99.90
21582;DHT22;10952;50.836;4.348;2023-07-02T05:38:32;17.40;99.90
21582;DHT22;10952;50.836;4.348;2023-07-02T05:41:02;17.50;99.90
21582;DHT22;10952;50.836;4.348;2023-07-02T05:43:29;17.60;99.90
21582;DHT22;10952;50.836;4.348;2023-07-02T05:45:59;17.60;99.90
21582;DHT22;10952;50.836;4.348;2023-07-02T05:48:30;17.70;99.90
21582;DHT22;10952;50.836;4.348;2023-07-02T05:51:11;17.70;99.90
21582;DHT22;10952;50.836;4.348;2023-07-02T05:53:41;17.80;99.90
21582;DHT22;10952;50.836;4.348;2023-07-02T05:56:10;17.90;99.90
21582;DHT22;10952;50.836;4.348;2023-07-02T05:58:38;17.90;99.90
21582;DHT22;10952;50.836;4.348;2023-07-02T06:01:04;18.00;99.90
21582;DHT22;10952;50.836;4.348;2023-07-02T06:03:33;18.10;99.90
21582;DHT22;10952;50.836;4.348;2023-07-02T06:06:06;18.10;99.90
21582;DHT22;10952;50.836;4.348;2023-07-02T06:08:36;18.30;99.90
21582;DHT22;10952;50.836;4.348;2023-07-02T06:11:12;18.30;99.90
21582;DHT22;10952;50.836;4.348;2023-07-02T06:13:40;18.50;99.90
21582;DHT22;10952;50.836;4.348;2023-07-02T06:16:09;18.50;99.90
21582;DHT22;10952;50.836;4.348;2023-07-02T06:18:40;18.50;99.90
21582;DHT22;10952;50.836;4.348;2023-07-02T06:21:08;18.60;99.90
21582;DHT22;10952;50.836;4.348;2023-07-02T06:23:41;18.70;99.90
21582;DHT22;10952;50.836;4.348;2023-07-02T06:26:07;18.70;99.90
21582;DHT22;10952;50.836;4.348;2023-07-02T06:28:38;18.70;99.90
21582;DHT22;10952;50.836;4.348;2023-07-02T06:31:04;18.70;99.90
21582;DHT22;10952;50.836;4.348;2023-07-02T06:33:33;18.70;99.90
21582;DHT22;10952;50.836;4.348;2023-07-02T06:39:38;18.70;99.90
21582;DHT22;10952;50.836;4.348;2023-07-02T06:42:04;19.00;99.90
21582;DHT22;10952;50.836;4.348;2023-07-02T06:44:30;19.10;99.90
21582;DHT22;10952;50.836;4.348;2023-07-02T06:46:59;19.00;99.90
21582;DHT22;10952;50.836;4.348;2023-07-02T06:49:28;19.20;99.90
21582;DHT22;10952;50.836;4.348;2023-07-02T06:51:54;19.00;99.90
21582;DHT22;10952;50.836;4.348;2023-07-02T06:54:46;19.10;99.90
21582;DHT22;10952;50.836;4.348;2023-07-02T06:57:16;19.30;99.90
21582;DHT22;10952;50.836;4.348;2023-07-02T06:59:42;19.50;99.90
21582;DHT22;10952;50.836;4.348;2023-07-02T07:02:09;19.60;99.90
21582;DHT22;10952;50.836;4.348;2023-07-02T07:04:36;19.70;99.90
21582;DHT22;10952;50.836;4.348;2023-07-02T07:07:03;19.60;99.90
21582;DHT22;10952;50.836;4.348;2023-07-02T07:09:30;19.50;99.90
21582;DHT22;10952;50.836;4.348;2023-07-02T07:11:58;19.50;99.90
21582;DHT22;10952;50.836;4.348;2023-07-02T07:14:27;19.60;99.90
21582;DHT22;10952;50.836;4.348;2023-07-02T07:16:55;19.70;99.90
21582;DHT22;10952;50.836;4.348;2023-07-02T07:19:24;19.80;99.90
21582;DHT22;10952;50.836;4.348;2023-07-02T07:22:18;19.70;99.90
21582;DHT22;10952;50.836;4.348;2023-07-02T07:24:46;19.70;99.90
21582;DHT22;10952;50.836;4.348;2023-07-02T07:27:24;19.80;99.90
21582;DHT22;10952;50.836;4.348;2023-07-02T07:29:51;19.90;99.90
21582;DHT22;10952;50.836;4.348;2023-07-02T07:32:23;19.90;99.90
21582;DHT22;10952;50.836;4.348;2023-07-02T07:34:51;20.00;99.90
21582;DHT22;10952;50.836;4.348;2023-07-02T07:37:17;20.00;99.90
21582;DHT22;10952;50.836;4.348;2023-07-02T07:39:46;20.00;99.90
21582;DHT22;10952;50.836;4.348;2023-07-02T07:42:15;20.00;99.90
21582;DHT22;10952;50.836;4.348;2023-07-02T07:44:51;20.10;99.90
21582;DHT22;10952;50.836;4.348;2023-07-02T07:47:18;20.30;99.90
21582;DHT22;10952;50.836;4.348;2023-07-02T07:49:43;20.50;99.90
21582;DHT22;10952;50.836;4.348;2023-07-02T07:52:12;20.60;99.90
21582;DHT22;10952;50.836;4.348;2023-07-02T07:58:00;21.00;99.90
21582;DHT22;10952;50.836;4.348;2023-07-02T08:00:31;21.10;99.90
21582;DHT22;10952;50.836;4.348;2023-07-02T08:02:59;21.30;99.90
21582;DHT22;10952;50.836;4.348;2023-07-02T08:05:26;21.30;99.90
21582;DHT22;10952;50.836;4.348;2023-07-02T08:08:28;21.50;99.90
21582;DHT22;10952;50.836;4.348;2023-07-02T08:11:03;21.10;99.90
21582;DHT22;10952;50.836;4.348;2023-07-02T08:13:31;21.30;99.90
21582;DHT22;10952;50.836;4.348;2023-07-02T08:16:00;21.70;99.90
21582;DHT22;10952;50.836;4.348;2023-07-02T08:18:25;21.90;99.90
21582;DHT22;10952;50.836;4.348;2023-07-02T08:20:53;22.00;99.90
21582;DHT22;10952;50.836;4.348;2023-07-02T08:23:22;21.70;99.90
21582;DHT22;10952;50.836;4.348;2023-07-02T08:25:51;21.70;99.90
21582;DHT22;10952;50.836;4.348;2023-07-02T08:28:24;21.80;99.90
21582;DHT22;10952;50.836;4.348;2023-07-02T08:30:54;21.80;99.90
21582;DHT22;10952;50.836;4.348;2023-07-02T08:33:42;22.00;99.90
21582;DHT22;10952;50.836;4.348;2023-07-02T08:36:08;22.20;99.90
21582;DHT22;10952;50.836;4.348;2023-07-02T08:38:52;22.00;99.90
21582;DHT22;10952;50.836;4.348;2023-07-02T08:41:21;22.10;99.90
21582;DHT22;10952;50.836;4.348;2023-07-02T08:43:48;21.90;99.90
21582;DHT22;10952;50.836;4.348;2023-07-02T08:46:17;22.00;99.90
21582;DHT22;10952;50.836;4.348;2023-07-02T08:48:47;22.10;99.90
21582;DHT22;10952;50.836;4.348;2023-07-02T08:51:14;21.90;99.90
21582;DHT22;10952;50.836;4.348;2023-07-02T08:53:40;21.60;99.90
21582;DHT22;10952;50.836;4.348;2023-07-02T08:56:08;21.40;99.90
21582;DHT22;10952;50.836;4.348;2023-07-02T08:58:37;21.20;99.90
21582;DHT22;10952;50.836;4.348;2023-07-02T09:01:25;21.20;99.90
21582;DHT22;10952;50.836;4.348;2023-07-02T09:03:58;21.60;99.90
21582;DHT22;10952;50.836;4.348;2023-07-02T09:06:28;21.60;99.90
21582;DHT22;10952;50.836;4.348;2023-07-02T09:09:03;21.80;99.90
21582;DHT22;10952;50.836;4.348;2023-07-02T09:11:32;22.10;99.90
21582;DHT22;10952;50.836;4.348;2023-07-02T09:13:57;22.20;99.90
21582;DHT22;10952;50.836;4.348;2023-07-02T09:16:31;22.50;99.90
21582;DHT22;10952;50.836;4.348;2023-07-02T09:19:05;22.50;99.90
21582;DHT22;10952;50.836;4.348;2023-07-02T09:21:48;22.40;99.90
21582;DHT22;10952;50.836;4.348;2023-07-02T09:24:20;22.40;99.90
21582;DHT22;10952;50.836;4.348;2023-07-02T09:26:53;22.10;99.90
21582;DHT22;10952;50.836;4.348;2023-07-02T09:29:32;21.90;99.90
21582;DHT22;10952;50.836;4.348;2023-07-02T09:32:04;21.90;99.90
21582;DHT22;10952;50.836;4.348;2023-07-02T09:34:42;22.20;99.90
21582;DHT22;10952;50.836;4.348;2023-07-02T09:37:12;23.30;99.90
21582;DHT22;10952;50.836;4.348;2023-07-02T09:39:40;24.40;99.90
21582;DHT22;10952;50.836;4.348;2023-07-02T09:42:10;24.60;99.90
21582;DHT22;10952;50.836;4.348;2023-07-02T09:44:39;24.50;99.90
21582;DHT22;10952;50.836;4.348;2023-07-02T09:47:10;24.10;99.90
21582;DHT22;10952;50.836;4.348;2023-07-02T09:52:15;23.00;99.90
21582;DHT22;10952;50.836;4.348;2023-07-02T09:54:45;22.60;99.90
21582;DHT22;10952;50.836;4.348;2023-07-02T09:57:12;22.30;99.90
21582;DHT22;10952;50.836;4.348;2023-07-02T09:59:56;22.30;99.90
21582;DHT22;10952;50.836;4.348;2023-07-02T10:02:23;22.60;99.90
21582;DHT22;10952;50.836;4.348;2023-07-02T10:04:58;23.10;99.90
21582;DHT22;10952;50.836;4.348;2023-07-02T10:07:40;24.20;99.90
21582;DHT22;10952;50.836;4.348;2023-07-02T10:10:06;25.00;99.90
21582;DHT22;10952;50.836;4.348;2023-07-02T10:12:33;24.80;99.90
21582;DHT22;10952;50.836;4.348;2023-07-02T10:15:02;25.80;99.90
21582;DHT22;10952;50.836;4.348;2023-07-02T10:17:32;27.30;99.30
21582;DHT22;10952;50.836;4.348;2023-07-02T10:20:09;28.00;96.80
21582;DHT22;10952;50.836;4.348;2023-07-02T10:22:49;27.90;95.70
21582;DHT22;10952;50.836;4.348;2023-07-02T10:25:30;27.40;95.80
21582;DHT22;10952;50.836;4.348;2023-07-02T10:27:58;26.30;97.30
21582;DHT22;10952;50.836;4.348;2023-07-02T10:30:33;25.40;98.10
21582;DHT22;10952;50.836;4.348;2023-07-02T10:38:45;23.90;99.90
21582;DHT22;10952;50.836;4.348;2023-07-02T10:41:28;23.50;99.90
21582;DHT22;10952;50.836;4.348;2023-07-02T10:43:56;23.40;99.90
21582;DHT22;10952;50.836;4.348;2023-07-02T10:46:33;23.80;99.90
21582;DHT22;10952;50.836;4.348;2023-07-02T10:49:02;24.70;99.60
21582;DHT22;10952;50.836;4.348;2023-07-02T10:51:28;25.40;97.70
21582;DHT22;10952;50.836;4.348;2023-07-02T10:54:02;26.40;96.30
21582;DHT22;10952;50.836;4.348;2023-07-02T10:56:30;27.50;95.10
21582;DHT22;10952;50.836;4.348;2023-07-02T10:58:59;28.00;93.80
21582;DHT22;10952;50.836;4.348;2023-07-02T11:01:29;27.70;94.20
21582;DHT22;10952;50.836;4.348;2023-07-02T11:04:03;27.30;92.90
21582;DHT22;10952;50.836;4.348;2023-07-02T11:06:32;27.50;93.00
21582;DHT22;10952;50.836;4.348;2023-07-02T11:08:59;27.20;93.20
21582;DHT22;10952;50.836;4.348;2023-07-02T11:11:28;27.90;92.50
21582;DHT22;10952;50.836;4.348;2023-07-02T11:20:40;24.20;95.70
21582;DHT22;10952;50.836;4.348;2023-07-02T11:23:21;23.80;96.80
21582;DHT22;10952;50.836;4.348;2023-07-02T11:26:00;24.10;96.90
21582;DHT22;10952;50.836;4.348;2023-07-02T11:28:29;24.30;96.80
21582;DHT22;10952;50.836;4.348;2023-07-02T11:30:57;24.20;96.90
21582;DHT22;10952;50.836;4.348;2023-07-02T11:33:36;24.20;96.90
21582;DHT22;10952;50.836;4.348;2023-07-02T11:36:23;24.40;96.70
21582;DHT22;10952;50.836;4.348;2023-07-02T11:38:55;25.70;95.00
21582;DHT22;10952;50.836;4.348;2023-07-02T11:41:23;26.50;93.70
21582;DHT22;10952;50.836;4.348;2023-07-02T11:43:49;27.50;91.80
21582;DHT22;10952;50.836;4.348;2023-07-02T11:46:15;27.30;91.90
21582;DHT22;10952;50.836;4.348;2023-07-02T11:48:44;27.30;92.00
21582;DHT22;10952;50.836;4.348;2023-07-02T11:51:14;26.80;92.30
21582;DHT22;10952;50.836;4.348;2023-07-02T11:53:43;26.30;93.30
21582;DHT22;10952;50.836;4.348;2023-07-02T11:56:08;26.10;93.90
21582;DHT22;10952;50.836;4.348;2023-07-02T11:58:41;26.40;93.80
21582;DHT22;10952;50.836;4.348;2023-07-02T12:01:10;26.70;93.00
21582;DHT22;10952;50.836;4.348;2023-07-02T12:03:53;26.70;93.30
21582;DHT22;10952;50.836;4.348;2023-07-02T12:06:20;26.70;92.60
21582;DHT22;10952;50.836;4.348;2023-07-02T12:08:48;26.90;91.70
21582;DHT22;10952;50.836;4.348;2023-07-02T12:11:17;27.00;91.00
21582;DHT22;10952;50.836;4.348;2023-07-02T12:13:43;26.70;91.00
21582;DHT22;10952;50.836;4.348;2023-07-02T12:16:09;26.90;91.00
21582;DHT22;10952;50.836;4.348;2023-07-02T12:18:57;27.10;91.00
21582;DHT22;10952;50.836;4.348;2023-07-02T12:21:23;27.30;90.40
21582;DHT22;10952;50.836;4.348;2023-07-02T12:23:51;27.10;90.60
21582;DHT22;10952;50.836;4.348;2023-07-02T12:26:16;27.10;90.90
21582;DHT22;10952;50.836;4.348;2023-07-02T12:28:45;27.30;91.30
21582;DHT22;10952;50.836;4.348;2023-07-02T12:31:11;27.30;91.20
21582;DHT22;10952;50.836;4.348;2023-07-02T12:33:44;28.00;90.80
21582;DHT22;10952;50.836;4.348;2023-07-02T12:36:24;28.70;88.00
21582;DHT22;10952;50.836;4.348;2023-07-02T12:38:53;28.90;86.60
21582;DHT22;10952;50.836;4.348;2023-07-02T12:41:23;28.20;87.30
21582;DHT22;10952;50.836;4.348;2023-07-02T12:43:50;27.80;88.40
21582;DHT22;10952;50.836;4.348;2023-07-02T12:46:20;27.10;90.80
21582;DHT22;10952;50.836;4.348;2023-07-02T12:48:49;26.40;91.60
21582;DHT22;10952;50.836;4.348;2023-07-02T12:51:16;25.70;92.50
21582;DHT22;10952;50.836;4.348;2023-07-02T12:53:45;25.20;93.00
21582;DHT22;10952;50.836;4.348;2023-07-02T12:56:11;25.10;93.80
21582;DHT22;10952;50.836;4.348;2023-07-02T12:58:39;25.00;93.60
21582;DHT22;10952;50.836;4.348;2023-07-02T13:01:06;24.70;93.50
21582;DHT22;10952;50.836;4.348;2023-07-02T13:03:32;24.40;94.10
21582;DHT22;10952;50.836;4.348;2023-07-02T13:05:57;24.60;94.00
21582;DHT22;10952;50.836;4.348;2023-07-02T13:11:52;24.90;94.00
21582;DHT22;10952;50.836;4.348;2023-07-02T13:14:32;24.70;93.80
21582;DHT22;10952;50.836;4.348;2023-07-02T13:16:57;24.30;94.10
21582;DHT22;10952;50.836;4.348;2023-07-02T13:19:30;24.10;94.20
21582;DHT22;10952;50.836;4.348;2023-07-02T13:21:57;24.00;94.60
21582;DHT22;10952;50.836;4.348;2023-07-02T13:24:23;24.00;94.60
21582;DHT22;10952;50.836;4.348;2023-07-02T13:26:49;24.40;94.40
21582;DHT22;10952;50.836;4.348;2023-07-02T13:29:15;24.70;94.30
21582;DHT22;10952;50.836;4.348;2023-07-02T13:31:45;24.60;94.10
21582;DHT22;10952;50.836;4.348;2023-07-02T13:34:12;24.60;94.10
21582;DHT22;10952;50.836;4.348;2023-07-02T13:36:40;24.30;94.60
21582;DHT22;10952;50.836;4.348;2023-07-02T13:39:06;24.20;94.80
21582;DHT22;10952;50.836;4.348;2023-07-02T13:41:33;24.50;94.60
21582;DHT22;10952;50.836;4.348;2023-07-02T13:44:11;24.60;93.90
21582;DHT22;10952;50.836;4.348;2023-07-02T13:49:59;24.40;94.20
21582;DHT22;10952;50.836;4.348;2023-07-02T13:52:25;24.50;94.30
21582;DHT22;10952;50.836;4.348;2023-07-02T13:54:54;24.60;94.40
21582;DHT22;10952;50.836;4.348;2023-07-02T13:57:24;24.80;94.30
21582;DHT22;10952;50.836;4.348;2023-07-02T13:59:49;24.80;94.10
21582;DHT22;10952;50.836;4.348;2023-07-02T14:02:17;24.90;94.00
21582;DHT22;10952;50.836;4.348;2023-07-02T14:04:45;25.00;94.10
21582;DHT22;10952;50.836;4.348;2023-07-02T14:07:16;24.80;94.30
21582;DHT22;10952;50.836;4.348;2023-07-02T14:09:46;24.70;94.40
21582;DHT22;10952;50.836;4.348;2023-07-02T14:12:12;24.60;94.80
21582;DHT22;10952;50.836;4.348;2023-07-02T14:14:40;24.90;94.30
21582;DHT22;10952;50.836;4.348;2023-07-02T14:17:06;24.80;94.00
21582;DHT22;10952;50.836;4.348;2023-07-02T14:19:45;25.00;94.10
21582;DHT22;10952;50.836;4.348;2023-07-02T14:22:14;25.00;93.40
21582;DHT22;10952;50.836;4.348;2023-07-02T14:24:40;24.90;93.20
21582;DHT22;10952;50.836;4.348;2023-07-02T14:27:06;24.80;93.60
21582;DHT22;10952;50.836;4.348;2023-07-02T14:29:32;24.90;93.90
21582;DHT22;10952;50.836;4.348;2023-07-02T14:31:58;24.90;93.50
21582;DHT22;10952;50.836;4.348;2023-07-02T14:34:23;24.80;94.10
21582;DHT22;10952;50.836;4.348;2023-07-02T14:36:52;24.90;94.00
21582;DHT22;10952;50.836;4.348;2023-07-02T14:39:20;24.80;93.90
21582;DHT22;10952;50.836;4.348;2023-07-02T14:41:51;24.80;94.00
21582;DHT22;10952;50.836;4.348;2023-07-02T14:44:18;24.80;93.90
21582;DHT22;10952;50.836;4.348;2023-07-02T14:46:45;24.80;93.50
21582;DHT22;10952;50.836;4.348;2023-07-02T14:49:12;24.80;93.70
21582;DHT22;10952;50.836;4.348;2023-07-02T14:51:40;24.70;93.40
21582;DHT22;10952;50.836;4.348;2023-07-02T14:54:17;24.60;93.50
21582;DHT22;10952;50.836;4.348;2023-07-02T14:56:46;24.50;93.40
21582;DHT22;10952;50.836;4.348;2023-07-02T15:02:24;24.40;93.60
21582;DHT22;10952;50.836;4.348;2023-07-02T15:04:51;24.40;93.40
21582;DHT22;10952;50.836;4.348;2023-07-02T15:07:24;24.50;93.50
21582;DHT22;10952;50.836;4.348;2023-07-02T15:09:50;24.80;93.50
21582;DHT22;10952;50.836;4.348;2023-07-02T15:12:36;24.80;92.90
21582;DHT22;10952;50.836;4.348;2023-07-02T15:15:04;24.50;93.20
21582;DHT22;10952;50.836;4.348;2023-07-02T15:17:30;24.80;93.30
21582;DHT22;10952;50.836;4.348;2023-07-02T15:20:04;25.00;93.00
21582;DHT22;10952;50.836;4.348;2023-07-02T15:22:33;25.10;92.70
21582;DHT22;10952;50.836;4.348;2023-07-02T15:25:07;25.10;92.80
21582;DHT22;10952;50.836;4.348;2023-07-02T15:27:34;24.80;92.90
21582;DHT22;10952;50.836;4.348;2023-07-02T15:30:03;24.40;93.60
21582;DHT22;10952;50.836;4.348;2023-07-02T15:32:29;24.60;93.70
21582;DHT22;10952;50.836;4.348;2023-07-02T15:34:58;24.60;93.70
21582;DHT22;10952;50.836;4.348;2023-07-02T15:37:37;24.90;93.40
21582;DHT22;10952;50.836;4.348;2023-07-02T15:40:11;24.80;93.50
21582;DHT22;10952;50.836;4.348;2023-07-02T15:42:39;24.50;93.60
21582;DHT22;10952;50.836;4.348;2023-07-02T15:45:11;24.30;93.90
21582;DHT22;10952;50.836;4.348;2023-07-02T15:47:38;24.10;94.40
21582;DHT22;10952;50.836;4.348;2023-07-02T15:53:19;24.60;93.60
21582;DHT22;10952;50.836;4.348;2023-07-02T15:59:02;24.70;93.00
21582;DHT22;10952;50.836;4.348;2023-07-02T16:04:44;25.00;92.70
21582;DHT22;10952;50.836;4.348;2023-07-02T16:07:14;25.30;92.20
21582;DHT22;10952;50.836;4.348;2023-07-02T16:09:42;25.50;92.00
21582;DHT22;10952;50.836;4.348;2023-07-02T16:12:09;25.80;91.60
21582;DHT22;10952;50.836;4.348;2023-07-02T16:14:40;25.90;91.30
21582;DHT22;10952;50.836;4.348;2023-07-02T16:17:08;25.70;91.10
21582;DHT22;10952;50.836;4.348;2023-07-02T16:19:36;25.20;91.60
21582;DHT22;10952;50.836;4.348;2023-07-02T16:22:02;24.60;91.90
21582;DHT22;10952;50.836;4.348;2023-07-02T16:24:32;24.40;92.20
21582;DHT22;10952;50.836;4.348;2023-07-02T16:27:00;24.20;92.40
21582;DHT22;10952;50.836;4.348;2023-07-02T16:29:28;24.20;92.60
21582;DHT22;10952;50.836;4.348;2023-07-02T16:32:05;24.20;92.80
21582;DHT22;10952;50.836;4.348;2023-07-02T16:34:34;24.30;92.60
21582;DHT22;10952;50.836;4.348;2023-07-02T16:37:00;24.20;91.50
21582;DHT22;10952;50.836;4.348;2023-07-02T16:39:29;23.90;92.20
21582;DHT22;10952;50.836;4.348;2023-07-02T16:41:56;23.80;92.30